Time;durP1;ratioP1;P1;durP2;ratioP2;P2;SDS_P1;SDS_P2;PMS_P1;PMS_P2;Temp;Humidity;BMP_temperature;BMP_pressure;BME280_temperature;BME280_humidity;BME280_pressure;Samples;Min_cycle;Max_cycle;Signal;HPM_P1;HPM_P2
2021/09/19 00:01:18;;;;;;;;;;;8.50;99.90;;;;;;8297154;28;19905;-63
2021/09/19 00:05:19;;;;;;;;;;;8.70;99.90;;;;;;8297419;28;20369;-63
2021/09/19 00:09:19;;;;;;;;;;;8.70;99.90;;;;;;8297308;28;19910;-63
2021/09/19 00:13:20;;;;;;;;;;;8.50;99.90;;;;;;8297251;28;19912;-63
2021/09/19 00:17:20;;;;;;;;;;;8.40;99.90;;;;;;8296902;28;19909;-63
2021/09/19 00:21:21;;;;;;;;;;;8.60;99.90;;;;;;8296841;28;19912;-63
2021/09/19 00:25:21;;;;;;;;;;;8.50;99.90;;;;;;8296480;28;19909;-63
2021/09/19 00:29:22;;;;;;;;;;;8.40;99.90;;;;;;8296782;28;19916;-63
2021/09/19 00:33:22;;;;;;;;;;;8.40;99.90;;;;;;8279238;28;19912;-63
2021/09/19 00:37:23;;;;;;;;;;;8.50;99.90;;;;;;8296382;28;20020;-63
2021/09/19 00:41:23;;;;;;;;;;;8.60;99.90;;;;;;8296454;28;20541;-63
2021/09/19 00:45:24;;;;;;;;;;;8.40;99.90;;;;;;8296148;28;19924;-63
2021/09/19 00:49:25;;;;;;;;;;;8.20;99.90;;;;;;8296155;28;19913;-63
2021/09/19 00:53:26;;;;;;;;;;;8.20;99.90;;;;;;8295690;28;19932;-63
2021/09/19 00:57:27;;;;;;;;;;;8.20;99.90;;;;;;8295738;28;19912;-63
2021/09/19 01:01:28;;;;;;;;;;;8.10;99.90;;;;;;8295813;28;19996;-63
2021/09/19 01:05:28;;;;;;;;;;;8.50;99.90;;;;;;8295464;28;19909;-63
2021/09/19 01:09:29;;;;;;;;;;;8.20;99.90;;;;;;8295585;28;19913;-63
2021/09/19 01:13:29;;;;;;;;;;;8.00;99.90;;;;;;8295496;28;20495;-63
2021/09/19 01:17:30;;;;;;;;;;;8.00;99.90;;;;;;8295280;28;19912;-63
2021/09/19 01:21:31;;;;;;;;;;;8.10;99.90;;;;;;8294383;28;20391;-63
2021/09/19 01:25:32;;;;;;;;;;;7.80;99.90;;;;;;8294660;28;19929;-63
2021/09/19 01:29:33;;;;;;;;;;;7.80;99.90;;;;;;8294597;28;20293;-63
2021/09/19 01:33:33;;;;;;;;;;;7.70;99.90;;;;;;8295154;28;19916;-63
2021/09/19 01:37:34;;;;;;;;;;;7.70;99.90;;;;;;8294650;28;20344;-63
2021/09/19 01:41:35;;;;;;;;;;;7.80;99.90;;;;;;8294433;28;20400;-63
2021/09/19 01:45:37;;;;;;;;;;;7.70;99.90;;;;;;8294482;28;19916;-63
2021/09/19 01:49:43;;;;;;;;;;;7.70;99.90;;;;;;8294605;28;20047;-63
2021/09/19 01:53:44;;;;;;;;;;;7.70;99.90;;;;;;8294146;28;19909;-63
2021/09/19 01:57:44;;;;;;;;;;;7.70;99.90;;;;;;8293847;28;19906;-63
2021/09/19 02:01:45;;;;;;;;;;;7.60;99.90;;;;;;8294235;28;19967;-63
2021/09/19 02:05:45;;;;;;;;;;;7.60;99.90;;;;;;8293924;28;19940;-63
2021/09/19 02:09:46;;;;;;;;;;;7.80;99.90;;;;;;8294403;28;19910;-63
2021/09/19 02:13:47;;;;;;;;;;;7.70;99.90;;;;;;8294251;28;19909;-63
2021/09/19 02:17:48;;;;;;;;;;;7.40;99.90;;;;;;8293977;28;19906;-63
2021/09/19 02:21:48;;;;;;;;;;;7.60;99.90;;;;;;8294428;28;19905;-63
2021/09/19 02:25:49;;;;;;;;;;;7.60;99.90;;;;;;8293229;28;19949;-63
2021/09/19 02:29:49;;;;;;;;;;;7.60;99.90;;;;;;8293923;28;20358;-63
2021/09/19 02:33:50;;;;;;;;;;;7.60;99.90;;;;;;8278300;28;19951;-63
2021/09/19 02:37:50;;;;;;;;;;;7.60;99.90;;;;;;8300143;28;19947;-63
2021/09/19 02:41:51;;;;;;;;;;;7.40;99.90;;;;;;8299896;28;19913;-63
2021/09/19 02:45:51;;;;;;;;;;;7.40;99.90;;;;;;8299696;28;19906;-63
2021/09/19 02:49:52;;;;;;;;;;;7.30;99.90;;;;;;8300141;28;20329;-63
2021/09/19 02:53:52;;;;;;;7.87;5.67;;;7.20;99.90;;;;;;8299051;28;19932;-63
2021/09/19 02:57:53;;;;;;;8.30;6.03;;;7.20;99.90;;;;;;8298824;28;20494;-63
2021/09/19 03:01:53;;;;;;;11.18;5.55;;;7.20;99.90;;;;;;8298396;28;20083;-63
2021/09/19 03:05:54;;;;;;;10.15;7.82;;;7.30;99.90;;;;;;8279834;28;20026;-63
2021/09/19 03:09:54;;;;;;;9.85;7.30;;;7.30;99.90;;;;;;8297914;28;20440;-63
2021/09/19 03:13:55;;;;;;;10.52;7.70;;;7.30;99.90;;;;;;8298755;28;20394;-63
2021/09/19 03:17:57;;;;;;;17.08;11.07;;;7.20;99.90;;;;;;8298356;28;20022;-63
2021/09/19 03:21:58;;;;;;;15.77;9.80;;;7.30;99.90;;;;;;8298463;28;20072;-63
2021/09/19 03:25:58;;;;;;;16.83;9.57;;;7.30;99.90;;;;;;8297751;28;20029;-63
2021/09/19 03:29:59;;;;;;;13.15;8.63;;;7.30;99.90;;;;;;8298561;28;20030;-63
2021/09/19 03:33:59;;;;;;;11.57;5.50;;;7.20;99.90;;;;;;8298283;28;20088;-63
2021/09/19 03:38:00;;;;;;;7.63;4.95;;;7.10;99.90;;;;;;8297776;28;20160;-63
2021/09/19 03:42:00;;;;;;;12.63;8.50;;;7.30;99.90;;;;;;8297606;28;20088;-63
2021/09/19 03:46:01;;;;;;;16.13;10.45;;;7.30;99.90;;;;;;8296372;28;20034;-63
2021/09/19 03:50:03;;;;;;;15.75;9.57;;;7.40;99.90;;;;;;8297848;28;20026;-63
2021/09/19 03:54:04;;;;;;;15.85;8.88;;;7.60;99.90;;;;;;8297177;28;20121;-63
2021/09/19 03:58:04;;;;;;;122.65;109.13;;;7.60;99.90;;;;;;8279691;28;20022;-63
2021/09/19 04:02:05;;;;;;;7.88;5.93;;;7.60;99.90;;;;;;8297295;28;20402;-63
2021/09/19 04:06:06;;;;;;;7.15;5.20;;;7.60;99.90;;;;;;8296664;28;20086;-63
2021/09/19 04:10:08;;;;;;;8.75;6.47;;;7.80;99.90;;;;;;8296295;28;20478;-62
2021/09/19 04:14:09;;;;;;;9.55;6.88;;;7.90;99.90;;;;;;8297066;28;20030;-62
2021/09/19 04:18:09;;;;;;;9.32;6.72;;;8.00;99.90;;;;;;8296137;28;20038;-62
2021/09/19 04:22:10;;;;;;;12.52;6.97;;;8.10;99.90;;;;;;8296417;28;20390;-62
2021/09/19 04:26:10;;;;;;;12.40;7.45;;;8.20;99.90;;;;;;8278343;28;20037;-63
2021/09/19 04:30:12;;;;;;;14.57;7.22;;;8.20;99.90;;;;;;8296727;28;20018;-62
2021/09/19 04:34:12;;;;;;;19.92;8.20;;;8.30;99.90;;;;;;8296289;28;20590;-62
2021/09/19 04:38:13;;;;;;;22.05;8.90;;;8.30;99.90;;;;;;8295940;28;20022;-62
2021/09/19 04:42:14;;;;;;;20.98;9.85;;;8.60;99.90;;;;;;8296144;28;20033;-62
2021/09/19 04:46:14;;;;;;;24.08;11.57;;;8.50;99.90;;;;;;8275316;28;20186;-63
2021/09/19 04:50:15;;;;;;;32.67;16.58;;;8.60;99.90;;;;;;8294210;28;20509;-62
2021/09/19 04:54:15;;;;;;;33.28;16.73;;;8.60;99.90;;;;;;8293435;28;20033;-63
2021/09/19 04:58:16;;;;;;;29.98;14.80;;;8.80;99.90;;;;;;8295339;28;20033;-62
2021/09/19 05:02:16;;;;;;;30.98;15.15;;;8.80;99.90;;;;;;8295840;28;20030;-62
2021/09/19 05:06:17;;;;;;;36.20;15.80;;;8.90;99.90;;;;;;8295379;28;20405;-62
2021/09/19 05:10:18;;;;;;;30.88;14.35;;;9.00;99.90;;;;;;8278169;28;20021;-62
2021/09/19 05:14:18;;;;;;;32.20;14.90;;;9.10;99.90;;;;;;8295453;28;20029;-62
2021/09/19 05:18:19;;;;;;;30.25;14.55;;;9.30;99.90;;;;;;8294991;28;20076;-62
2021/09/19 05:22:19;;;;;;;33.33;16.00;;;9.30;99.90;;;;;;8294740;28;20453;-62
2021/09/19 05:26:20;;;;;;;31.08;14.50;;;9.50;99.90;;;;;;8294368;28;20022;-63
2021/09/19 05:30:21;;;;;;;26.25;14.10;;;9.50;99.90;;;;;;8295021;28;20048;-62
2021/09/19 05:34:22;;;;;;;23.48;13.77;;;9.60;99.90;;;;;;8276781;28;20113;-63
2021/09/19 05:38:23;;;;;;;25.63;14.95;;;9.70;99.90;;;;;;8294071;28;20080;-63
2021/09/19 05:42:23;;;;;;;28.25;15.20;;;9.80;99.90;;;;;;8292992;28;20414;-63
2021/09/19 05:46:24;;;;;;;31.40;16.80;;;9.90;99.90;;;;;;8274426;28;20156;-63
2021/09/19 05:50:25;;;;;;;27.58;17.13;;;9.90;99.90;;;;;;8292163;28;20098;-63
2021/09/19 05:54:26;;;;;;;28.67;16.75;;;10.10;99.90;;;;;;8272566;28;20030;-63
2021/09/19 05:58:26;;;;;;;32.08;17.92;;;10.10;99.90;;;;;;8290054;28;20553;-63
2021/09/19 06:02:27;;;;;;;35.55;20.00;;;10.30;99.90;;;;;;8292510;28;20049;-64
2021/09/19 06:06:28;;;;;;;34.25;21.30;;;10.40;99.90;;;;;;8273874;28;20033;-63
2021/09/19 06:10:28;;;;;;;35.13;22.42;;;10.70;99.90;;;;;;8291565;28;20394;-63
2021/09/19 06:14:29;;;;;;;35.88;22.55;;;10.80;99.90;;;;;;8291346;28;20018;-63
2021/09/19 06:18:31;;;;;;;34.05;22.50;;;10.90;99.90;;;;;;8290478;28;20398;-63
2021/09/19 06:22:32;;;;;;;34.17;22.40;;;11.10;99.90;;;;;;8272910;28;20030;-63
2021/09/19 06:26:32;;;;;;;34.08;21.35;;;11.30;99.90;;;;;;8290007;28;20101;-63
2021/09/19 06:30:33;;;;;;;30.73;20.58;;;11.40;99.90;;;;;;8289918;28;20026;-64
2021/09/19 06:34:38;;;;;;;29.05;19.67;;;11.60;99.90;;;;;;8289765;28;20025;-63
2021/09/19 06:38:38;;;;;;;25.15;17.85;;;11.70;99.90;;;;;;8292344;28;20030;-63
2021/09/19 06:42:39;;;;;;;24.88;17.73;;;11.80;99.90;;;;;;8292385;28;20040;-63
2021/09/19 06:46:40;;;;;;;25.00;18.05;;;11.90;99.90;;;;;;8292385;28;20483;-63
2021/09/19 06:50:40;;;;;;;25.55;17.58;;;12.00;99.90;;;;;;8293013;28;20033;-64
2021/09/19 06:54:42;;;;;;;28.08;18.38;;;12.10;99.90;;;;;;8292562;28;20446;-63
2021/09/19 06:58:43;;;;;;;23.55;16.98;;;12.10;99.90;;;;;;8292477;28;20030;-64
2021/09/19 07:02:43;;;;;;;22.67;17.48;;;12.30;99.90;;;;;;8292651;28;20459;-64
2021/09/19 07:06:46;;;;;;;22.77;16.63;;;12.50;99.90;;;;;;8292166;28;20030;-64
2021/09/19 07:10:47;;;;;;;23.13;16.40;;;12.60;99.90;;;;;;8292759;28;20022;-64
2021/09/19 07:14:48;;;;;;;20.70;15.57;;;12.90;99.90;;;;;;8292279;28;20486;-64
2021/09/19 07:18:48;;;;;;;21.88;17.05;;;13.00;99.90;;;;;;8275395;28;20134;-63
2021/09/19 07:22:49;;;;;;;22.17;16.52;;;13.20;99.90;;;;;;8298585;28;20101;-63
2021/09/19 07:26:50;;;;;;;21.58;16.35;;;13.50;99.90;;;;;;8296418;28;20064;-64
2021/09/19 07:30:50;;;;;;;22.77;16.38;;;13.40;99.90;;;;;;8297260;28;20038;-64
2021/09/19 07:34:51;;;;;;;25.73;16.52;;;13.50;99.90;;;;;;8296461;28;20030;-64
2021/09/19 07:38:52;;;;;;;21.85;16.48;;;13.80;99.90;;;;;;8292201;28;20074;-64
2021/09/19 07:42:53;;;;;;;20.77;15.35;;;14.30;99.90;;;;;;8296220;28;20486;-64
2021/09/19 07:46:54;;;;;;;19.83;15.35;;;14.60;99.90;;;;;;8287755;28;20615;-64
2021/09/19 07:50:55;;;;;;;20.00;15.48;;;14.80;99.90;;;;;;8296106;28;20033;-64
2021/09/19 07:54:55;;;;;;;17.58;13.02;;;15.10;99.90;;;;;;8296516;28;20501;-64
2021/09/19 07:58:56;;;;;;;19.23;14.15;;;15.50;99.90;;;;;;8296952;28;20037;-64
2021/09/19 08:02:57;;;;;;;17.55;14.15;;;15.70;99.90;;;;;;8297338;28;20029;-64
2021/09/19 08:06:57;;;;;;;18.23;14.27;;;15.80;99.90;;;;;;8296675;28;20123;-64
2021/09/19 08:10:59;;;;;;;17.38;13.30;;;16.10;99.90;;;;;;8297239;28;20076;-64
2021/09/19 08:14:59;;;;;;;18.15;13.60;;;16.60;99.90;;;;;;8296558;28;20025;-64
2021/09/19 08:19:00;;;;;;;15.15;12.65;;;16.90;99.90;;;;;;8296504;28;20047;-64
2021/09/19 08:23:01;;;;;;;16.38;13.05;;;16.90;99.90;;;;;;8295583;28;20034;-64
2021/09/19 08:27:03;;;;;;;16.63;13.00;;;16.80;99.90;;;;;;8295225;28;20064;-64
2021/09/19 08:31:04;;;;;;;15.40;12.35;;;16.60;99.90;;;;;;8277442;28;20048;-64
2021/09/19 08:35:06;;;;;;;15.63;12.50;;;16.60;99.90;;;;;;8277505;28;20035;-64
2021/09/19 08:39:08;;;;;;;15.20;12.55;;;16.60;99.90;;;;;;8296159;28;20026;-64
2021/09/19 08:43:09;;;;;;;16.40;13.23;;;16.60;99.90;;;;;;8294479;28;20112;-63
2021/09/19 08:47:12;;;;;;;16.23;13.00;;;16.80;99.90;;;;;;8291375;28;20037;-64
2021/09/19 08:51:13;;;;;;;15.45;12.20;;;16.90;99.90;;;;;;8295087;28;20379;-64
2021/09/19 08:55:14;;;;;;;15.82;12.63;;;16.50;99.90;;;;;;8294940;28;20781;-64
2021/09/19 08:59:14;;;;;;;15.63;13.05;;;16.40;99.90;;;;;;8289969;28;20104;-64
2021/09/19 09:03:17;;;;;;;14.75;12.70;;;16.70;99.90;;;;;;8274867;28;20449;-65
2021/09/19 09:07:18;;;;;;;16.58;12.48;;;16.80;99.90;;;;;;8274095;28;20037;-64
2021/09/19 09:11:18;;;;;;;16.75;14.20;;;16.80;99.90;;;;;;8275697;28;20108;-64
2021/09/19 09:15:19;;;;;;;15.63;12.80;;;;;;;;;;8294629;28;20026;-64
2021/09/19 09:19:20;;;;;;;13.88;11.95;;;17.70;99.90;;;;;;8294511;28;20406;-64
2021/09/19 09:23:24;;;;;;;13.93;12.05;;;18.10;99.90;;;;;;8294135;28;20033;-64
2021/09/19 09:27:25;;;;;;;14.38;11.93;;;18.30;99.90;;;;;;8294401;28;20060;-64
2021/09/19 09:31:46;;;;;;;13.98;11.15;;;18.50;99.90;;;;;;8294558;28;20033;-64
2021/09/19 09:35:47;;;;;;;13.63;11.63;;;18.20;99.90;;;;;;8294509;28;20033;-64
2021/09/19 09:39:47;;;;;;;13.35;10.82;;;18.20;99.90;;;;;;8294304;28;20460;-64
2021/09/19 09:43:48;;;;;;;14.23;11.93;;;18.30;99.90;;;;;;8292820;28;20048;-64
2021/09/19 09:47:48;;;;;;;13.60;11.35;;;18.30;99.90;;;;;;8293206;28;20414;-64
2021/09/19 09:51:49;;;;;;;12.23;10.57;;;18.20;99.90;;;;;;8338801;23;20061;-63
2021/09/19 09:55:52;;;;;;;12.63;11.15;;;18.30;99.90;;;;;;8260499;28;20153;-63
2021/09/19 09:59:54;;;;;;;11.57;10.38;;;18.90;99.90;;;;;;8261228;28;20054;-63
2021/09/19 10:03:56;;;;;;;11.35;10.15;;;19.90;99.90;;;;;;8260453;28;20074;-63
2021/09/19 10:07:58;;;;;;;14.80;11.10;;;20.70;99.90;;;;;;8259220;28;20050;-63
2021/09/19 10:11:59;;;;;;;12.95;11.00;;;21.40;99.90;;;;;;8259750;28;20602;-63
2021/09/19 10:16:01;;;;;;;15.90;10.30;;;21.20;99.90;;;;;;8260935;28;20102;-63
2021/09/19 10:20:09;;;;;;;10.48;9.38;;;21.40;99.90;;;;;;8261026;28;20542;-63
2021/09/19 10:24:10;;;;;;;10.80;8.98;;;21.80;99.90;;;;;;8260928;28;20034;-63
2021/09/19 10:28:37;;;;;;;10.85;9.52;;;21.90;99.90;;;;;;8260565;28;20030;-63
2021/09/19 10:32:39;;;;;;;11.43;9.73;;;21.60;99.90;;;;;;8254356;28;20145;-63
2021/09/19 10:36:51;;;;;;;10.20;9.20;;;21.60;99.90;;;;;;8260565;28;20050;-63
2021/09/19 10:41:18;;;;;;;10.13;9.02;;;21.60;99.90;;;;;;8261000;28;20030;-63
2021/09/19 10:45:19;;;;;;;10.70;9.55;;;21.60;99.90;;;;;;8261018;28;20860;-63
2021/09/19 10:49:20;;;;;;;11.93;8.82;;;21.20;99.90;;;;;;8259721;28;20037;-62
2021/09/19 10:53:28;;;;;;;10.30;8.88;;;21.60;99.90;;;;;;8255598;28;20426;-63
2021/09/19 10:57:34;;;;;;;12.70;9.70;;;22.30;99.90;;;;;;8266046;28;20045;-63
2021/09/19 11:01:37;;;;;;;9.80;8.60;;;22.30;99.90;;;;;;8266798;28;20402;-63
2021/09/19 11:05:47;;;;;;;11.68;8.45;;;22.20;99.90;;;;;;8264886;28;20029;-63
2021/09/19 11:09:48;;;;;;;11.80;9.38;;;22.00;99.90;;;;;;8266330;28;20065;-63
2021/09/19 11:13:55;;;;;;;11.90;9.98;;;21.80;99.90;;;;;;8265901;28;20125;-63
2021/09/19 11:17:55;;;;;;;9.68;8.30;;;22.20;99.90;;;;;;8264478;28;20033;-63
2021/09/19 11:21:56;;;;;;;10.13;9.00;;;25.40;99.90;;;;;;8266351;28;20065;-63
2021/09/19 11:25:59;;;;;;;9.93;8.93;;;26.80;98.80;;;;;;8264530;28;20380;-64
2021/09/19 11:30:00;;;;;;;9.90;8.70;;;28.00;93.50;;;;;;8264407;28;20034;-63
2021/09/19 11:34:10;;;;;;;9.60;8.00;;;27.30;92.00;;;;;;8265182;28;20053;-63
2021/09/19 11:38:10;;;;;;;8.23;7.40;;;26.30;93.20;;;;;;8263256;28;20033;-63
2021/09/19 11:42:13;;;;;;;9.48;8.57;;;26.90;91.20;;;;;;8260795;28;20022;-63
2021/09/19 11:46:17;;;;;;;8.75;7.85;;;26.10;91.50;;;;;;8263709;28;20442;-63
2021/09/19 11:50:22;;;;;;;8.07;6.85;;;25.70;93.00;;;;;;8262044;28;20022;-63
2021/09/19 11:54:23;;;;;;;8.63;7.72;;;26.00;93.10;;;;;;8263511;28;20685;-64
2021/09/19 11:58:24;;;;;;;8.65;7.85;;;29.20;85.30;;;;;;8264873;28;20022;-64
2021/09/19 12:02:30;;;;;;;10.25;7.53;;;27.60;79.60;;;;;;8264853;28;20394;-64
2021/09/19 12:06:31;;;;;;;10.55;8.68;;;26.10;87.60;;;;;;8262024;28;20598;-64
2021/09/19 12:10:32;;;;;;;8.82;7.32;;;26.00;86.60;;;;;;8263062;28;20022;-63
2021/09/19 12:14:33;;;;;;;8.48;7.57;;;26.00;90.40;;;;;;8264412;28;20019;-63
2021/09/19 12:18:35;;;;;;;8.77;7.88;;;26.80;87.20;;;;;;8264080;28;20426;-64
2021/09/19 12:22:36;;;;;;;10.07;9.05;;;26.90;87.50;;;;;;8263812;28;20487;-63
2021/09/19 12:26:36;;;;;;;9.68;8.70;;;26.10;91.00;;;;;;8263485;28;20026;-64
2021/09/19 12:30:40;;;;;;;8.18;7.38;;;29.80;81.70;;;;;;8263448;28;20037;-64
2021/09/19 12:34:46;;;;;;;12.05;8.48;;;31.90;70.60;;;;;;8261806;28;20027;-63
2021/09/19 12:38:46;;;;;;;10.68;9.07;;;27.80;79.70;;;;;;8260535;28;20034;-63
2021/09/19 12:42:49;;;;;;;8.73;7.85;;;25.40;87.40;;;;;;8252851;28;20030;-63
2021/09/19 12:46:52;;;;;;;8.25;7.45;;;25.50;88.40;;;;;;8258469;28;20060;-63
2021/09/19 12:50:55;;;;;;;9.93;8.35;;;25.80;89.50;;;;;;8261968;28;20018;-63
2021/09/19 12:54:59;;;;;;;10.07;8.32;;;24.70;90.10;;;;;;8261982;28;20022;-63
2021/09/19 12:58:59;;;;;;;9.38;8.43;;;23.20;93.70;;;;;;8261392;28;20474;-63
2021/09/19 13:03:06;;;;;;;10.35;8.52;;;22.30;94.80;;;;;;8262572;28;20041;-63
2021/09/19 13:07:06;;;;;;;8.27;7.47;;;21.60;97.30;;;;;;8262062;28;20029;-63
2021/09/19 13:11:07;;;;;;;8.93;7.88;;;21.20;99.40;;;;;;8262150;28;20025;-63
2021/09/19 13:15:08;;;;;;;9.30;7.85;;;21.20;99.90;;;;;;8259123;28;20110;-63
2021/09/19 13:19:10;;;;;;;11.00;8.95;;;20.60;99.90;;;;;;8260902;28;20130;-63
2021/09/19 13:23:11;;;;;;;9.52;8.52;;;20.50;99.90;;;;;;8261382;28;20491;-63
2021/09/19 13:27:11;;;;;;;10.93;9.27;;;20.20;99.90;;;;;;8260760;28;20069;-63
2021/09/19 13:31:12;;;;;;;10.07;8.82;;;20.20;99.90;;;;;;8261855;28;20025;-63
2021/09/19 13:35:14;;;;;;;10.48;8.70;;;20.00;99.90;;;;;;8259776;28;20061;-62
2021/09/19 13:39:15;;;;;;;11.20;10.00;;;19.80;99.90;;;;;;8261451;28;20041;-63
2021/09/19 13:43:16;;;;;;;10.70;9.43;;;19.50;99.90;;;;;;8260471;28;20026;-63
2021/09/19 13:47:17;;;;;;;10.48;9.38;;;19.50;99.90;;;;;;8260755;28;20487;-63
2021/09/19 13:51:18;;;;;;;10.00;8.80;;;19.40;99.90;;;;;;8261776;28;20065;-63
2021/09/19 13:55:18;;;;;;;12.68;10.15;;;19.30;99.90;;;;;;8261612;28;20647;-63
2021/09/19 13:59:23;;;;;;;13.55;9.85;;;19.00;99.90;;;;;;8261081;28;20391;-62
2021/09/19 14:03:24;;;;;;;12.00;10.23;;;18.80;99.90;;;;;;8259886;28;20511;-63
2021/09/19 14:07:24;;;;;;;12.20;9.88;;;18.50;99.90;;;;;;8260859;28;20073;-63
2021/09/19 14:11:25;;;;;;;13.57;11.48;;;18.30;99.90;;;;;;8261239;28;20415;-63
2021/09/19 14:15:25;;;;;;;11.13;8.98;;;18.00;99.90;;;;;;8261059;28;20049;-63
2021/09/19 14:19:26;;;;;;;15.18;11.07;;;17.70;99.90;;;;;;8261362;28;20394;-62
2021/09/19 14:23:27;;;;;;;12.43;10.15;;;17.50;99.90;;;;;;8261015;28;20395;-62
2021/09/19 14:27:28;;;;;;;13.65;10.50;;;17.30;99.90;;;;;;8260499;28;20040;-63
2021/09/19 14:31:29;;;;;;;12.27;10.07;;;17.30;99.90;;;;;;8260405;28;20030;-63
2021/09/19 14:35:29;;;;;;;11.32;8.88;;;17.10;99.90;;;;;;8260658;28;20109;-62
2021/09/19 14:39:30;;;;;;;9.55;7.72;;;16.90;99.90;;;;;;8260437;28;20380;-63
2021/09/19 14:43:37;;;;;;;7.80;6.05;;;16.70;99.90;;;;;;8260169;28;20033;-62
2021/09/19 14:47:38;;;;;;;7.75;5.57;;;16.70;99.90;;;;;;8260147;28;20029;-62
2021/09/19 14:51:39;;;;;;;5.78;4.63;;;16.30;99.90;;;;;;8260294;28;20045;-62
2021/09/19 14:55:40;;;;;;;6.10;4.13;;;16.20;99.90;;;;;;8259752;28;20027;-62
2021/09/19 14:59:40;;;;;;;2.53;1.80;;;16.00;99.90;;;;;;8259526;28;20113;-63
2021/09/19 15:03:41;;;;;;;3.28;1.77;;;;;;;;;;8259205;28;20027;-62
2021/09/19 15:07:42;;;;;;;2.00;1.42;;;15.60;99.90;;;;;;8259537;28;20525;-62
2021/09/19 15:11:43;;;;;;;1.23;1.10;;;15.60;99.90;;;;;;8259113;28;20030;-62
2021/09/19 15:15:45;;;;;;;1.55;1.02;;;15.50;99.90;;;;;;8259397;28;20026;-62
2021/09/19 15:19:45;;;;;;;1.30;0.98;;;15.30;99.90;;;;;;8248165;28;20560;-62
2021/09/19 15:23:46;;;;;;;1.52;1.23;;;15.10;99.90;;;;;;8249605;28;20034;-62
2021/09/19 15:27:47;;;;;;;1.63;1.20;;;15.10;99.90;;;;;;8267609;28;20121;-62
2021/09/19 15:31:48;;;;;;;2.00;1.02;;;15.00;99.90;;;;;;8251015;28;20027;-62
2021/09/19 15:35:48;;;;;;;2.88;1.10;;;14.70;99.90;;;;;;8254379;28;20034;-61
2021/09/19 15:39:51;;;;;;;3.58;1.20;;;14.60;99.90;;;;;;8265667;28;20044;-62
2021/09/19 15:43:51;;;;;;;4.55;1.58;;;14.30;99.90;;;;;;8257347;28;20121;-62
2021/09/19 15:47:54;;;;;;;1.58;1.20;;;14.10;99.90;;;;;;8258659;28;20049;-62
2021/09/19 15:51:55;;;;;;;3.35;1.40;;;13.90;99.90;;;;;;8262844;28;20038;-62
2021/09/19 15:55:56;;;;;;;1.80;1.30;;;13.80;99.90;;;;;;8261780;28;20027;-61
2021/09/19 15:59:56;;;;;;;3.15;1.58;;;13.70;99.90;;;;;;8261450;28;20069;-62
2021/09/19 16:03:58;;;;;;;1.60;1.40;;;13.80;99.90;;;;;;8255852;28;20424;-63
2021/09/19 16:07:59;;;;;;;1.10;1.00;;;13.80;99.90;;;;;;8250902;28;20081;-63
2021/09/19 16:11:59;;;;;;;;;;;13.90;99.90;;;;;;8254368;28;20130;-62
2021/09/19 16:16:00;;;;;;;;;;;13.80;99.90;;;;;;8255581;28;19909;-62
2021/09/19 16:20:00;;;;;;;;;;;13.70;99.90;;;;;;8255098;28;20012;-62
2021/09/19 16:24:02;;;;;;;;;;;13.70;99.90;;;;;;8256738;28;20393;-62
2021/09/19 16:28:03;;;;;;;;;;;13.70;99.90;;;;;;8252648;28;19979;-62
2021/09/19 16:32:04;;;;;;;;;;;13.50;99.90;;;;;;8259629;28;19921;-62
2021/09/19 16:36:05;;;;;;;;;;;13.40;99.90;;;;;;8249343;28;19992;-63
2021/09/19 16:40:06;;;;;;;;;;;13.40;99.90;;;;;;8258090;28;19937;-63
2021/09/19 16:44:06;;;;;;;;;;;13.40;99.90;;;;;;8260514;28;19917;-61
2021/09/19 16:48:07;;;;;;;;;;;13.40;99.90;;;;;;8255466;28;19932;-62
2021/09/19 16:52:08;;;;;;;;;;;13.40;99.90;;;;;;8256709;28;20291;-62
2021/09/19 16:56:08;;;;;;;;;;;13.40;99.90;;;;;;8316562;22;19924;-63
2021/09/19 17:00:10;;;;;;;;;;;13.40;99.90;;;;;;8356396;28;19908;-64
2021/09/19 17:04:11;;;;;;;;;;;13.50;99.90;;;;;;8339820;28;19938;-64
2021/09/19 17:08:13;;;;;;;;;;;13.50;99.90;;;;;;8340074;28;20303;-63
2021/09/19 17:12:13;;;;;;;;;;;13.30;99.90;;;;;;8326206;28;19959;-63
2021/09/19 17:16:14;;;;;;;;;;;12.40;99.90;;;;;;8325173;28;19916;-64
2021/09/19 17:20:15;;;;;;;;;;;13.00;99.90;;;;;;8332088;28;19920;-64
2021/09/19 17:24:16;;;;;;;;;;;13.00;99.90;;;;;;8333705;28;20325;-64
2021/09/19 17:28:16;;;;;;;;;;;13.00;99.90;;;;;;8339918;28;19923;-63
2021/09/19 17:32:17;;;;;;;;;;;13.10;99.90;;;;;;8336906;28;19913;-63
2021/09/19 17:36:17;;;;;;;;;;;13.10;99.90;;;;;;8336755;28;19909;-64
2021/09/19 17:40:18;;;;;;;;;;;13.10;99.90;;;;;;8340561;28;19974;-63
2021/09/19 17:44:18;;;;;;;;;;;12.90;99.90;;;;;;8339947;28;19923;-63
2021/09/19 17:48:23;;;;;;;;;;;12.80;99.90;;;;;;8348257;28;19925;-63
2021/09/19 17:52:23;;;;;;;;;;;12.90;99.90;;;;;;8347954;28;19924;-63
2021/09/19 17:56:24;;;;;;;;;;;12.70;99.90;;;;;;8339808;28;19924;-63
2021/09/19 18:00:24;;;;;;;;;;;12.70;99.90;;;;;;8338648;28;19963;-64
2021/09/19 18:04:25;;;;;;;;;;;12.70;99.90;;;;;;8335633;28;19920;-64
2021/09/19 18:08:25;;;;;;;;;;;12.70;99.90;;;;;;8337564;28;19913;-63
2021/09/19 18:12:27;;;;;;;;;;;12.60;99.90;;;;;;8325974;28;19916;-63
2021/09/19 18:16:27;;;;;;;;;;;12.50;99.90;;;;;;8328135;28;19919;-63
2021/09/19 18:20:28;;;;;;;;;;;12.40;99.90;;;;;;8339239;28;19905;-63
2021/09/19 18:24:28;;;;;;;;;;;12.30;99.90;;;;;;8337464;28;19908;-63
2021/09/19 18:28:41;;;;;;;;;;;12.30;99.90;;;;;;8342678;28;19913;-63
2021/09/19 18:32:41;;;;;;;;;;;12.20;99.90;;;;;;8354708;28;19952;-64
2021/09/19 18:36:42;;;;;;;;;;;12.20;99.90;;;;;;8356147;28;19962;-63
2021/09/19 18:40:42;;;;;;;;;;;12.10;99.90;;;;;;8356223;28;19912;-63
2021/09/19 18:44:43;;;;;;;;;;;12.20;99.90;;;;;;8351502;28;19919;-63
2021/09/19 18:48:43;;;;;;;;;;;12.20;99.90;;;;;;8355246;28;19983;-64
2021/09/19 18:52:44;;;;;;;;;;;12.10;99.90;;;;;;8355779;28;19905;-64
2021/09/19 18:56:44;;;;;;;;;;;12.10;99.90;;;;;;8355569;28;20070;-63
2021/09/19 19:00:45;;;;;;;;;;;12.10;99.90;;;;;;8337835;28;19913;-64
2021/09/19 19:04:45;;;;;;;;;;;12.00;99.90;;;;;;8354704;28;19919;-63
2021/09/19 19:08:46;;;;;;;;;;;12.00;99.90;;;;;;8354161;28;19917;-64
2021/09/19 19:12:48;;;;;;;;;;;12.10;99.90;;;;;;8354250;28;19988;-64
2021/09/19 19:16:48;;;;;;;;;;;12.00;99.90;;;;;;8351709;28;19999;-64
2021/09/19 19:20:48;;;;;;;;;;;11.90;99.90;;;;;;8329946;28;19905;-64
2021/09/19 19:24:49;;;;;;;;;;;11.90;99.90;;;;;;8361665;28;19908;-64
2021/09/19 19:28:50;;;;;;;;;;;11.90;99.90;;;;;;8360533;28;19963;-64
2021/09/19 19:32:50;;;;;;;;;;;11.90;99.90;;;;;;8347170;28;19992;-64
2021/09/19 19:36:51;;;;;;;;;;;11.80;99.90;;;;;;8344518;28;19908;-63
2021/09/19 19:40:51;;;;;;;;;;;11.90;99.90;;;;;;8358755;28;19912;-63
2021/09/19 19:44:52;;;;;;;;;;;11.80;99.90;;;;;;8361349;28;20369;-63
2021/09/19 19:48:52;;;;;;;;;;;11.80;99.90;;;;;;8361204;28;19919;-64
2021/09/19 19:52:53;;;;;;;;;;;11.80;99.90;;;;;;8361159;28;19909;-63
2021/09/19 19:56:53;;;;;;;;;;;11.80;99.90;;;;;;8360078;28;19980;-63
2021/09/19 20:00:55;;;;;;;;;;;11.80;99.90;;;;;;8349152;28;20266;-63
2021/09/19 20:04:55;;;;;;;;;;;11.80;99.90;;;;;;8341968;28;19905;-63
2021/09/19 20:08:56;;;;;;;;;;;11.80;99.90;;;;;;8342616;28;20281;-63
2021/09/19 20:12:56;;;;;;;;;;;11.70;99.90;;;;;;8340029;28;19963;-63
2021/09/19 20:16:57;;;;;;;;;;;11.80;99.90;;;;;;8336067;28;20336;-63
2021/09/19 20:20:57;;;;;;;;;;;11.70;99.90;;;;;;8345972;28;19905;-63
2021/09/19 20:24:58;;;;;;;;;;;11.70;99.90;;;;;;8345230;28;19913;-63
2021/09/19 20:28:58;;;;;;;;;;;11.60;99.90;;;;;;8344802;28;20791;-63
2021/09/19 20:32:59;;;;;;;;;;;11.70;99.90;;;;;;8351230;28;20394;-63
2021/09/19 20:36:59;;;;;;;;;;;11.70;99.90;;;;;;8360307;28;19947;-63
2021/09/19 20:41:00;;;;;;;;;;;11.70;99.90;;;;;;8360790;28;19904;-63
2021/09/19 20:45:01;;;;;;;;;;;11.80;99.90;;;;;;8354504;28;20285;-63
2021/09/19 20:49:02;;;;;;;;;;;11.70;99.90;;;;;;8343595;28;20423;-63
2021/09/19 20:53:02;;;;;;;;;;;11.70;99.90;;;;;;8328994;28;20002;-63
2021/09/19 20:57:03;;;;;;;;;;;11.70;99.90;;;;;;8328620;28;20419;-63
2021/09/19 21:01:04;;;;;;;;;;;11.80;99.90;;;;;;8328789;28;19909;-63
2021/09/19 21:05:05;;;;;;;;;;;11.90;99.90;;;;;;8328524;28;20289;-63
2021/09/19 21:09:05;;;;;;;;;;;11.70;99.90;;;;;;8328575;28;19963;-63
2021/09/19 21:13:06;;;;;;;;;;;11.80;99.90;;;;;;8328618;28;19951;-63
2021/09/19 21:17:06;;;;;;;;;;;11.80;99.90;;;;;;8327458;28;20443;-63
2021/09/19 21:21:07;;;;;;;;;;;11.80;99.90;;;;;;8328485;28;20436;-63
2021/09/19 21:25:07;;;;;;;;;;;11.70;99.90;;;;;;8327572;28;19912;-63
2021/09/19 21:29:09;;;;;;;;;;;11.80;99.90;;;;;;8310146;28;19940;-63
2021/09/19 21:33:09;;;;;;;;;;;11.70;99.90;;;;;;8310117;28;19916;-63
2021/09/19 21:37:10;;;;;;;;;;;11.80;99.90;;;;;;8309675;28;20020;-63
2021/09/19 21:41:10;;;;;;;;;;;11.80;99.90;;;;;;8350650;28;19916;-63